createdAt,value
2019-03-15T00:01:41.336Z,99190.13
2019-03-15T00:04:10.589Z,99195.53
2019-03-15T00:06:39.881Z,99196.09
2019-03-15T00:09:09.448Z,99196.64
2019-03-15T00:11:38.819Z,99197.44
2019-03-15T00:14:08.127Z,99192.22
2019-03-15T00:16:37.636Z,99193.27
2019-03-15T00:19:06.939Z,99193.03
2019-03-15T00:21:36.182Z,99195.22
2019-03-15T00:24:05.499Z,99195.81
2019-03-15T00:26:34.783Z,99194.73
2019-03-15T00:29:04.186Z,99193.69
2019-03-15T00:31:33.513Z,99192.87
2019-03-15T00:34:03.079Z,99188.83
2019-03-15T00:36:32.306Z,99192.69
2019-03-15T00:39:01.640Z,99192.44
2019-03-15T00:41:30.986Z,99191.67
2019-03-15T00:44:00.273Z,99191.69
2019-03-15T00:46:29.599Z,99184.06
2019-03-15T00:48:58.924Z,99181.08
2019-03-15T00:51:28.227Z,99177.00
2019-03-15T00:53:57.480Z,99180.33
2019-03-15T00:56:26.756Z,99185.80
2019-03-15T00:58:56.010Z,99177.96
2019-03-15T01:01:25.328Z,99180.99
2019-03-15T01:03:54.892Z,99180.16
2019-03-15T01:06:24.381Z,99179.13
2019-03-15T01:08:53.683Z,99181.91
2019-03-15T01:11:22.963Z,99190.09
2019-03-15T01:13:52.647Z,99191.80
2019-03-15T01:16:21.922Z,99194.23
2019-03-15T01:18:51.557Z,99189.33
2019-03-15T01:21:20.934Z,99191.50
2019-03-15T01:23:50.250Z,99192.56
2019-03-15T01:26:19.615Z,99193.33
2019-03-15T01:28:49.154Z,99194.68
2019-03-15T01:31:18.403Z,99200.91
2019-03-15T01:33:47.703Z,99203.32
2019-03-15T01:36:17.010Z,99202.81
2019-03-15T01:38:46.260Z,99210.95
2019-03-15T01:41:15.597Z,99209.02
2019-03-15T01:43:44.989Z,99207.09
2019-03-15T01:46:14.374Z,99201.34
2019-03-15T01:48:43.701Z,99201.84
2019-03-15T01:51:12.904Z,99201.85
2019-03-15T01:53:42.257Z,99206.48
2019-03-15T01:56:11.608Z,99208.91
2019-03-15T01:58:40.871Z,99210.53
2019-03-15T02:01:10.122Z,99209.47
2019-03-15T02:03:39.648Z,99202.64
2019-03-15T02:06:09.008Z,99206.99
2019-03-15T02:08:38.300Z,99208.61
2019-03-15T02:11:07.632Z,99206.13
2019-03-15T02:13:36.976Z,99210.52
2019-03-15T02:16:06.311Z,99210.78
2019-03-15T02:18:35.688Z,99211.59
2019-03-15T02:21:05.033Z,99208.87
2019-03-15T02:23:34.286Z,99211.33
2019-03-15T02:26:03.530Z,99214.88
2019-03-15T02:28:32.849Z,99212.45
2019-03-15T02:31:02.239Z,99214.61
2019-03-15T02:33:33.408Z,99221.70
2019-03-15T02:36:02.583Z,99222.23
2019-03-15T02:38:31.915Z,99219.78
2019-03-15T02:41:01.201Z,99215.67
2019-03-15T02:43:30.482Z,99211.09
2019-03-15T02:45:59.758Z,99211.39
2019-03-15T02:48:29.055Z,99212.75
2019-03-15T02:50:58.389Z,99209.72
2019-03-15T02:53:27.699Z,99219.52
2019-03-15T02:55:57.038Z,99215.91
2019-03-15T02:58:27.883Z,99216.98
2019-03-15T03:00:57.324Z,99220.06
2019-03-15T03:03:26.556Z,99213.82
2019-03-15T03:05:55.810Z,99219.84
2019-03-15T03:08:25.099Z,99216.59
2019-03-15T03:10:55.929Z,99221.75
2019-03-15T03:13:25.550Z,99221.19
2019-03-15T03:15:54.796Z,99230.24
2019-03-15T03:18:24.124Z,99237.36
2019-03-15T03:20:53.677Z,99237.40
2019-03-15T03:23:23.038Z,99241.48
2019-03-15T03:25:52.327Z,99239.28
2019-03-15T03:28:21.688Z,99240.08
2019-03-15T03:30:50.971Z,99239.23
2019-03-15T03:33:20.226Z,99239.53
2019-03-15T03:35:49.501Z,99241.45
2019-03-15T03:38:18.761Z,99239.53
2019-03-15T03:40:48.089Z,99242.25
2019-03-15T03:43:17.495Z,99242.00
2019-03-15T03:45:46.801Z,99239.53
2019-03-15T03:48:16.095Z,99248.82
2019-03-15T03:50:45.398Z,99252.95
2019-03-15T03:53:14.662Z,99246.64
2019-03-15T03:55:43.913Z,99252.61
2019-03-15T03:58:13.279Z,99249.62
2019-03-15T04:00:42.608Z,99246.59
2019-03-15T04:03:11.875Z,99249.88
2019-03-15T04:05:41.316Z,99247.41
2019-03-15T04:08:10.753Z,99243.31
2019-03-15T04:10:40.023Z,99251.48
2019-03-15T04:13:09.309Z,99250.94
2019-03-15T04:15:38.654Z,99253.92
2019-03-15T04:18:07.916Z,99257.76
2019-03-15T04:20:37.315Z,99252.00
2019-03-15T04:23:06.681Z,99252.00
2019-03-15T04:25:36.342Z,99256.89
2019-03-15T04:28:05.607Z,99256.59
2019-03-15T04:30:35.004Z,99256.55
2019-03-15T04:33:04.297Z,99251.38
2019-03-15T04:35:33.639Z,99253.61
2019-03-15T04:38:02.934Z,99250.83
2019-03-15T04:40:32.200Z,99261.48
2019-03-15T04:43:01.459Z,99262.85
2019-03-15T04:45:30.812Z,99272.40
2019-03-15T04:48:00.079Z,99270.49
2019-03-15T04:50:29.369Z,99269.98
2019-03-15T04:52:58.731Z,99276.50
2019-03-15T04:55:28.051Z,99286.09
2019-03-15T04:57:57.444Z,99287.91
2019-03-15T05:00:26.722Z,99292.55
2019-03-15T05:02:55.958Z,99292.80
2019-03-15T05:05:25.255Z,99293.37
2019-03-15T05:07:54.540Z,99292.30
2019-03-15T05:10:23.858Z,99295.59
2019-03-15T05:12:53.185Z,99289.33
2019-03-15T05:15:22.526Z,99285.49
2019-03-15T05:17:51.812Z,99292.35
2019-03-15T05:20:21.422Z,99282.75
2019-03-15T05:22:50.743Z,99290.38
2019-03-15T05:25:20.031Z,99292.86
2019-03-15T05:27:49.532Z,99293.97
2019-03-15T05:30:18.849Z,99296.40
2019-03-15T05:32:48.244Z,99295.89
2019-03-15T05:35:17.499Z,99298.06
2019-03-15T05:37:46.906Z,99290.17
2019-03-15T05:40:16.276Z,99302.45
2019-03-15T05:42:45.539Z,99300.24
2019-03-15T05:45:14.796Z,99303.27
2019-03-15T05:47:44.154Z,99306.50
2019-03-15T05:50:13.630Z,99296.44
2019-03-15T05:52:42.930Z,99304.88
2019-03-15T05:55:12.532Z,99305.18
2019-03-15T05:57:41.776Z,99309.79
2019-03-15T06:00:12.488Z,99310.34
2019-03-15T06:02:41.823Z,99314.39
2019-03-15T06:05:11.271Z,99312.20
2019-03-15T06:07:40.585Z,99314.89
2019-03-15T06:10:10.063Z,99308.27
2019-03-15T06:12:39.310Z,99315.60
2019-03-15T06:15:08.709Z,99318.27
2019-03-15T06:17:38.036Z,99319.88
2019-03-15T06:20:07.715Z,99316.86
2019-03-15T06:22:37.056Z,99321.75
2019-03-15T06:25:06.879Z,99323.11
2019-03-15T06:27:36.210Z,99318.72
2019-03-15T06:30:05.850Z,99319.81
2019-03-15T06:32:35.076Z,99317.03
2019-03-15T06:35:04.901Z,99315.36
2019-03-15T06:37:34.202Z,99326.48
2019-03-15T06:40:03.583Z,99327.27
2019-03-15T06:42:32.931Z,99334.03
2019-03-15T06:45:02.310Z,99321.11
2019-03-15T06:47:31.865Z,99328.19
2019-03-15T06:50:01.204Z,99335.44
2019-03-15T06:52:30.516Z,99334.50
2019-03-15T06:55:00.118Z,99337.22
2019-03-15T06:57:29.538Z,99339.03
2019-03-15T06:59:59.715Z,99343.09
2019-03-15T07:02:29.069Z,99338.42
2019-03-15T07:04:58.388Z,99337.56
2019-03-15T07:07:27.730Z,99342.41
2019-03-15T07:09:57.024Z,99340.77
2019-03-15T07:12:26.270Z,99337.45
2019-03-15T07:14:55.568Z,99340.61
2019-03-15T07:17:25.083Z,99341.86
2019-03-15T07:19:54.676Z,99352.58
2019-03-15T07:22:24.092Z,99351.58
2019-03-15T07:24:53.337Z,99350.97
2019-03-15T07:27:22.670Z,99347.63
2019-03-15T07:29:52.082Z,99346.15
2019-03-15T07:32:21.704Z,99344.34
2019-03-15T07:34:51.044Z,99343.81
2019-03-15T07:37:21.481Z,99345.73
2019-03-15T07:39:50.830Z,99349.46
2019-03-15T07:42:20.110Z,99353.92
2019-03-15T07:44:49.393Z,99351.33
2019-03-15T07:47:18.634Z,99358.95
2019-03-15T07:49:47.969Z,99355.13
2019-03-15T07:52:17.315Z,99361.15
2019-03-15T07:54:46.628Z,99359.69
2019-03-15T07:57:16.136Z,99357.72
2019-03-15T07:59:45.570Z,99359.93
2019-03-15T08:02:14.808Z,99366.77
2019-03-15T08:04:44.077Z,99356.52
2019-03-15T08:07:13.339Z,99351.34
2019-03-15T08:09:42.921Z,99355.47
2019-03-15T08:12:12.265Z,99354.83
2019-03-15T08:14:41.574Z,99355.84
2019-03-15T08:17:10.856Z,99352.59
2019-03-15T08:19:40.171Z,99352.47
2019-03-15T08:22:09.426Z,99362.44
2019-03-15T08:24:50.771Z,99357.23
2019-03-15T08:27:09.701Z,99359.84
2019-03-15T08:29:39.029Z,99354.34
2019-03-15T08:32:08.383Z,99349.44
2019-03-15T08:34:37.845Z,99347.89
2019-03-15T08:37:07.151Z,99333.03
2019-03-15T08:39:36.484Z,99335.52
2019-03-15T08:42:05.812Z,99338.11
2019-03-15T08:44:35.109Z,99344.22
2019-03-15T08:47:04.434Z,99350.88
2019-03-15T08:49:33.701Z,99350.47
2019-03-15T08:52:04.143Z,99367.19
2019-03-15T08:54:33.556Z,99371.41
2019-03-15T08:57:02.858Z,99369.47
2019-03-15T08:59:32.325Z,99370.71
2019-03-15T09:02:01.652Z,99366.91
2019-03-15T09:04:30.952Z,99374.77
2019-03-15T09:07:00.527Z,99377.02
2019-03-15T09:09:29.817Z,99384.35
2019-03-15T09:11:59.179Z,99383.57
2019-03-15T09:14:28.435Z,99382.48
2019-03-15T09:16:57.705Z,99376.46
2019-03-15T09:19:27.000Z,99377.63
2019-03-15T09:21:56.340Z,99366.80
2019-03-15T09:24:25.672Z,99372.91
2019-03-15T09:26:55.182Z,99371.02
2019-03-15T09:29:24.476Z,99373.64
2019-03-15T09:32:05.247Z,99367.27
2019-03-15T09:34:24.921Z,99367.13
2019-03-15T09:36:54.429Z,99364.22
2019-03-15T09:39:23.794Z,99369.05
2019-03-15T09:41:53.075Z,99377.31
2019-03-15T09:44:22.383Z,99374.96
2019-03-15T09:46:51.719Z,99379.17
2019-03-15T09:49:21.011Z,99382.73
2019-03-15T09:51:50.345Z,99385.55
2019-03-15T09:54:19.681Z,99391.09
2019-03-15T09:56:48.996Z,99389.20
2019-03-15T09:59:19.531Z,99383.37
2019-03-15T10:01:48.800Z,99383.16
2019-03-15T10:04:18.091Z,99392.22
2019-03-15T10:06:47.406Z,99388.80
2019-03-15T10:09:16.716Z,99395.28
2019-03-15T10:11:46.020Z,99397.11
2019-03-15T10:14:15.354Z,99395.73
2019-03-15T10:16:44.652Z,99401.47
2019-03-15T10:19:13.853Z,99400.95
2019-03-15T10:21:43.145Z,99395.36
2019-03-15T10:24:15.502Z,99392.69
2019-03-15T10:26:43.417Z,99403.08
2019-03-15T10:29:15.730Z,99393.59
2019-03-15T10:31:43.758Z,99387.86
2019-03-15T10:34:13.058Z,99374.99
2019-03-15T10:36:42.384Z,99382.17
2019-03-15T10:39:11.828Z,99380.62
2019-03-15T10:41:41.076Z,99385.70
2019-03-15T10:44:10.332Z,99387.02
2019-03-15T10:46:40.504Z,99374.74
2019-03-15T10:49:09.936Z,99376.78
2019-03-15T10:51:39.258Z,99377.08
2019-03-15T10:54:08.596Z,99382.30
2019-03-15T10:56:37.903Z,99385.06
2019-03-15T10:59:07.191Z,99381.55
2019-03-15T11:01:36.486Z,99384.97
2019-03-15T11:04:05.760Z,99383.03
2019-03-15T11:06:35.066Z,99371.81
2019-03-15T11:09:04.777Z,99369.81
2019-03-15T11:11:34.112Z,99368.34
2019-03-15T11:14:03.378Z,99370.09
2019-03-15T11:16:32.644Z,99379.53
2019-03-15T11:19:01.990Z,99376.47
2019-03-15T11:21:31.303Z,99372.92
2019-03-15T11:24:00.629Z,99373.10
2019-03-15T11:26:29.949Z,99373.98
2019-03-15T11:28:59.227Z,99365.86
2019-03-15T11:31:28.541Z,99362.86
2019-03-15T11:33:57.830Z,99362.50
2019-03-15T11:36:27.062Z,99357.84
2019-03-15T11:38:56.389Z,99358.09
2019-03-15T11:41:25.944Z,99362.95
2019-03-15T11:43:55.257Z,99364.44
2019-03-15T11:46:24.520Z,99356.81
2019-03-15T11:48:53.798Z,99340.05
2019-03-15T11:51:23.051Z,99338.80
2019-03-15T11:53:52.358Z,99338.65
2019-03-15T11:56:26.990Z,99333.34
2019-03-15T11:58:52.712Z,99330.30
2019-03-15T12:01:22.076Z,99326.59
2019-03-15T12:03:53.237Z,99319.02
2019-03-15T12:06:22.483Z,99324.14
2019-03-15T12:08:51.813Z,99304.57
2019-03-15T12:11:21.064Z,99298.23
2019-03-15T12:13:50.343Z,99288.09
2019-03-15T12:16:19.602Z,99281.61
2019-03-15T12:18:48.909Z,99277.13
2019-03-15T12:21:18.756Z,99270.63
2019-03-15T12:23:48.130Z,99267.95
2019-03-15T12:26:17.398Z,99264.57
2019-03-15T12:28:46.714Z,99266.20
2019-03-15T12:31:16.038Z,99265.11
2019-03-15T12:33:45.345Z,99265.55
2019-03-15T12:36:14.660Z,99267.44
2019-03-15T12:38:43.927Z,99259.78
2019-03-15T12:41:13.242Z,99263.73
2019-03-15T12:43:42.595Z,99263.88
2019-03-15T12:46:11.866Z,99254.69
2019-03-15T12:48:41.231Z,99254.44
2019-03-15T12:51:10.775Z,99245.73
2019-03-15T12:53:40.058Z,99236.56
2019-03-15T12:56:11.031Z,99228.47
2019-03-15T12:58:40.645Z,99230.23
2019-03-15T13:01:09.916Z,99218.83
2019-03-15T13:03:39.153Z,99218.16
2019-03-15T13:06:08.644Z,99217.67
2019-03-15T13:08:38.051Z,99208.36
2019-03-15T13:11:07.431Z,99207.07
2019-03-15T13:13:36.743Z,99208.72
2019-03-15T13:16:06.149Z,99192.34
2019-03-15T13:18:35.433Z,99192.56
2019-03-15T13:21:04.749Z,99188.89
2019-03-15T13:23:34.121Z,99180.05
2019-03-15T13:26:03.423Z,99183.55
2019-03-15T13:28:32.769Z,99179.69
2019-03-15T13:31:02.104Z,99170.42
2019-03-15T13:33:31.426Z,99174.45
2019-03-15T13:36:00.839Z,99167.25
2019-03-15T13:38:30.099Z,99156.61
2019-03-15T13:40:59.362Z,99142.31
2019-03-15T13:43:28.617Z,99137.23
2019-03-15T13:45:57.974Z,99130.39
2019-03-15T13:48:27.319Z,99138.41
2019-03-15T13:50:56.604Z,99129.39
2019-03-15T13:53:25.834Z,99119.43
2019-03-15T13:55:55.151Z,99110.89
2019-03-15T13:58:24.524Z,99093.64
2019-03-15T14:00:53.909Z,99075.83
2019-03-15T14:03:23.208Z,99068.66
2019-03-15T14:05:52.553Z,99051.42
2019-03-15T14:08:21.951Z,99037.91
2019-03-15T14:10:51.203Z,99038.67
2019-03-15T14:13:20.503Z,99033.75
2019-03-15T14:15:49.741Z,99028.10
2019-03-15T14:18:21.592Z,99021.05
2019-03-15T14:20:50.189Z,99018.05
2019-03-15T14:23:19.492Z,99014.32
2019-03-15T14:25:49.061Z,99002.87
2019-03-15T14:28:18.301Z,99002.85
2019-03-15T14:30:47.593Z,99001.41
2019-03-15T14:33:16.860Z,98990.41
2019-03-15T14:35:46.191Z,98991.57
2019-03-15T14:38:15.776Z,98985.48
2019-03-15T14:40:45.241Z,98974.77
2019-03-15T14:43:14.817Z,98966.86
2019-03-15T14:45:44.131Z,98960.30
2019-03-15T14:48:13.701Z,98948.19
2019-03-15T14:50:42.950Z,98940.27
2019-03-15T14:53:12.208Z,98933.75
2019-03-15T14:55:41.517Z,98925.79
2019-03-15T14:58:10.849Z,98917.94
2019-03-15T15:00:40.183Z,98919.80
2019-03-15T15:03:09.513Z,98912.47
2019-03-15T15:05:38.792Z,98902.80
2019-03-15T15:08:08.123Z,98896.25
2019-03-15T15:10:37.582Z,98890.47
2019-03-15T15:13:06.904Z,98884.92
2019-03-15T15:15:36.213Z,98878.20
2019-03-15T15:18:05.511Z,98865.20
2019-03-15T15:20:34.815Z,98851.14
2019-03-15T15:23:06.691Z,98843.23
2019-03-15T15:25:35.944Z,98825.51
2019-03-15T15:28:05.279Z,98814.02
2019-03-15T15:30:34.576Z,98807.89
2019-03-15T15:33:03.881Z,98794.06
2019-03-15T15:35:33.226Z,98783.27
2019-03-15T15:38:02.508Z,98773.92
2019-03-15T15:40:31.726Z,98760.76
2019-03-15T15:43:01.014Z,98741.08
2019-03-15T15:45:30.317Z,98734.77
2019-03-15T15:47:59.662Z,98723.28
2019-03-15T15:50:28.999Z,98714.33
2019-03-15T15:52:58.379Z,98713.07
2019-03-15T15:55:27.682Z,98696.33
2019-03-15T15:57:56.915Z,98689.43
2019-03-15T16:00:26.240Z,98684.32
2019-03-15T16:02:55.565Z,98676.55
2019-03-15T16:05:24.833Z,98673.83
2019-03-15T16:07:56.457Z,98665.98
2019-03-15T16:10:25.248Z,98660.67
2019-03-15T16:12:54.708Z,98656.06
2019-03-15T16:15:24.003Z,98647.08
2019-03-15T16:17:53.326Z,98636.52
2019-03-15T16:20:22.659Z,98622.39
2019-03-15T16:22:51.899Z,98616.16
2019-03-15T16:25:21.197Z,98607.84
2019-03-15T16:27:50.520Z,98598.73
2019-03-15T16:30:19.911Z,98587.06
2019-03-15T16:32:49.383Z,98582.41
2019-03-15T16:35:18.763Z,98569.95
2019-03-15T16:37:48.133Z,98550.02
2019-03-15T16:40:17.503Z,98547.73
2019-03-15T16:42:46.964Z,98534.91
2019-03-15T16:45:16.546Z,98520.08
2019-03-15T16:47:45.863Z,98504.94
2019-03-15T16:50:15.380Z,98491.89
2019-03-15T16:52:44.995Z,98481.37
2019-03-15T16:55:14.275Z,98468.98
2019-03-15T16:57:43.500Z,98458.43
2019-03-15T17:00:13.233Z,98447.10
2019-03-15T17:02:42.509Z,98434.97
2019-03-15T17:05:11.902Z,98424.06
2019-03-15T17:07:41.261Z,98411.95
2019-03-15T17:10:10.895Z,98402.27
2019-03-15T17:12:40.210Z,98389.00
2019-03-15T17:15:10.917Z,98373.33
2019-03-15T17:17:40.242Z,98359.45
2019-03-15T17:20:10.276Z,98345.82
2019-03-15T17:22:39.511Z,98337.55
2019-03-15T17:25:09.506Z,98340.39
2019-03-15T17:27:38.830Z,98334.27
2019-03-15T17:30:10.406Z,98323.95
2019-03-15T17:32:40.024Z,98314.67
2019-03-15T17:35:11.020Z,98307.87
2019-03-15T17:37:40.308Z,98307.55
2019-03-15T17:40:11.505Z,98303.66
2019-03-15T17:42:40.884Z,98298.67
2019-03-15T17:45:10.377Z,98290.27
2019-03-15T17:47:39.723Z,98270.06
2019-03-15T17:50:12.217Z,98277.16
2019-03-15T17:52:41.496Z,98287.41
2019-03-15T17:55:11.003Z,98268.36
2019-03-15T17:57:40.515Z,98258.17
2019-03-15T18:00:16.135Z,98254.44
2019-03-15T18:02:45.609Z,98248.47
2019-03-15T18:05:15.316Z,98237.09
2019-03-15T18:07:44.768Z,98237.45
2019-03-15T18:10:14.313Z,98228.72
2019-03-15T18:12:43.663Z,98223.80
2019-03-15T18:15:13.368Z,98226.21
2019-03-15T18:17:42.839Z,98227.22
2019-03-15T18:20:12.202Z,98223.10
2019-03-15T18:22:41.525Z,98218.70
2019-03-15T18:25:12.538Z,98219.96
2019-03-15T18:27:41.845Z,98218.52
2019-03-15T18:30:11.816Z,98212.45
2019-03-15T18:32:41.129Z,98216.00
2019-03-15T18:35:11.334Z,98212.41
2019-03-15T18:37:40.635Z,98207.48
2019-03-15T18:40:11.342Z,98206.47
2019-03-15T18:42:40.750Z,98205.16
2019-03-15T18:45:11.543Z,98204.84
2019-03-15T18:47:40.884Z,98200.95
2019-03-15T18:50:13.379Z,98202.08
2019-03-15T18:52:42.753Z,98204.48
2019-03-15T18:55:12.176Z,98204.24
2019-03-15T18:57:41.517Z,98199.04
2019-03-15T19:00:13.718Z,98194.36
2019-03-15T19:02:43.032Z,98188.67
2019-03-15T19:05:12.637Z,98192.99
2019-03-15T19:07:41.910Z,98193.52
2019-03-15T19:10:12.024Z,98200.77
2019-03-15T19:12:41.356Z,98201.52
2019-03-15T19:15:11.874Z,98204.69
2019-03-15T19:17:41.156Z,98206.05
2019-03-15T19:20:10.430Z,98205.85
2019-03-15T19:22:39.702Z,98206.41
2019-03-15T19:25:09.264Z,98211.91
2019-03-15T19:27:38.621Z,98212.95
2019-03-15T19:30:08.975Z,98210.78
2019-03-15T19:32:38.334Z,98214.86
2019-03-15T19:35:08.228Z,98226.19
2019-03-15T19:37:37.807Z,98220.97
2019-03-15T19:40:08.240Z,98219.72
2019-03-15T19:42:37.563Z,98227.53
2019-03-15T19:45:07.792Z,98230.22
2019-03-15T19:47:37.144Z,98229.48
2019-03-15T19:50:07.914Z,98238.80
2019-03-15T19:52:37.196Z,98241.77
2019-03-15T19:55:07.276Z,98249.22
2019-03-15T19:57:36.620Z,98258.75
2019-03-15T20:00:08.514Z,98272.94
2019-03-15T20:02:37.660Z,98277.05
2019-03-15T20:05:06.989Z,98281.53
2019-03-15T20:07:36.690Z,98301.09
2019-03-15T20:10:06.479Z,98309.26
2019-03-15T20:12:35.779Z,98322.17
2019-03-15T20:15:05.446Z,98329.59
2019-03-15T20:17:34.775Z,98335.50
2019-03-15T20:20:04.440Z,98337.77
2019-03-15T20:22:33.759Z,98353.36
2019-03-15T20:25:03.034Z,98356.84
2019-03-15T20:27:32.342Z,98365.64
2019-03-15T20:30:01.722Z,98392.66
2019-03-15T20:32:30.999Z,98404.62
2019-03-15T20:35:00.341Z,98405.69
2019-03-15T20:37:29.719Z,98413.77
2019-03-15T20:39:59.050Z,98420.54
2019-03-15T20:42:28.372Z,98437.08
2019-03-15T20:44:57.684Z,98451.42
2019-03-15T20:47:26.961Z,98467.20
2019-03-15T20:49:56.247Z,98483.52
2019-03-15T20:52:25.558Z,98493.92
2019-03-15T20:54:54.856Z,98498.53
2019-03-15T20:57:24.238Z,98512.36
2019-03-15T20:59:53.526Z,98508.00
2019-03-15T21:02:22.844Z,98523.55
2019-03-15T21:04:52.244Z,98533.86
2019-03-15T21:07:21.519Z,98549.08
2019-03-15T21:09:50.776Z,98562.09
2019-03-15T21:12:20.063Z,98574.03
2019-03-15T21:14:49.381Z,98582.70
2019-03-15T21:17:18.715Z,98599.22
2019-03-15T21:19:48.149Z,98618.48
2019-03-15T21:22:17.490Z,98630.41
2019-03-15T21:24:46.769Z,98638.80
2019-03-15T21:27:16.061Z,98659.13
2019-03-15T21:29:45.475Z,98664.31
2019-03-15T21:32:14.910Z,98677.05
2019-03-15T21:34:44.536Z,98684.45
2019-03-15T21:37:13.946Z,98692.56
2019-03-15T21:39:43.488Z,98698.85
2019-03-15T21:42:12.785Z,98716.02
2019-03-15T21:44:42.077Z,98724.42
2019-03-15T21:47:11.327Z,98735.52
2019-03-15T21:49:40.610Z,98738.46
2019-03-15T21:52:10.266Z,98751.20
2019-03-15T21:54:39.523Z,98751.14
2019-03-15T21:57:08.786Z,98765.80
2019-03-15T21:59:39.220Z,98776.43
2019-03-15T22:02:08.514Z,98779.95
2019-03-15T22:04:37.786Z,98787.31
2019-03-15T22:07:07.095Z,98789.47
2019-03-15T22:09:36.814Z,98801.45
2019-03-15T22:12:06.265Z,98812.33
2019-03-15T22:14:35.983Z,98825.34
2019-03-15T22:17:05.282Z,98833.20
2019-03-15T22:19:34.671Z,98837.52
2019-03-15T22:22:03.897Z,98847.86
2019-03-15T22:24:33.237Z,98852.99
2019-03-15T22:27:02.844Z,98860.33
2019-03-15T22:29:32.412Z,98875.55
2019-03-15T22:32:01.912Z,98885.32
2019-03-15T22:34:31.279Z,98895.36
2019-03-15T22:37:00.508Z,98908.09
2019-03-15T22:39:29.830Z,98918.37
2019-03-15T22:41:59.170Z,98925.19
2019-03-15T22:44:28.501Z,98939.89
2019-03-15T22:46:57.789Z,98952.11
2019-03-15T22:49:27.134Z,98956.73
2019-03-15T22:51:56.501Z,98963.54
2019-03-15T22:54:25.828Z,98973.88
2019-03-15T22:56:55.100Z,98981.78
2019-03-15T22:59:24.359Z,98982.34
2019-03-15T23:01:53.637Z,98991.86
2019-03-15T23:04:22.967Z,98996.50
2019-03-15T23:06:52.294Z,98997.05
2019-03-15T23:09:21.558Z,99001.98
2019-03-15T23:11:50.816Z,99011.52
2019-03-15T23:14:20.223Z,99017.22
2019-03-15T23:16:49.548Z,99027.58
2019-03-15T23:19:18.833Z,99034.64
2019-03-15T23:21:48.156Z,99040.38
2019-03-15T23:24:18.636Z,99048.58
2019-03-15T23:26:47.929Z,99049.39
2019-03-15T23:29:17.229Z,99055.09
2019-03-15T23:31:46.565Z,99061.86
2019-03-15T23:34:15.994Z,99066.23
2019-03-15T23:36:45.317Z,99073.88
2019-03-15T23:39:14.849Z,99078.80
2019-03-15T23:41:44.184Z,99075.83
2019-03-15T23:44:13.530Z,99083.44
2019-03-15T23:46:42.846Z,99088.91
2019-03-15T23:49:12.235Z,99097.07
2019-03-15T23:51:41.573Z,99103.59
2019-03-15T23:54:10.885Z,99114.47
2019-03-15T23:56:40.184Z,99120.72
2019-03-15T23:59:09.436Z,99117.16
